Time;durP1;ratioP1;P1;durP2;ratioP2;P2;SDS_P1;SDS_P2;PMS_P1;PMS_P2;Temp;Humidity;BMP_temperature;BMP_pressure;BME280_temperature;BME280_humidity;BME280_pressure;Samples;Min_cycle;Max_cycle;Signal;HPM_P1;HPM_P2
2022/01/11 00:00:51;;;;;;;26.48;9.77;;;3.70;99.90;;;;;;5035593;28;20033;-54
2022/01/11 00:03:19;;;;;;;28.33;9.77;;;3.70;99.90;;;;;;5035500;28;20029;-51
2022/01/11 00:08:15;;;;;;;29.52;10.70;;;3.60;99.90;;;;;;5035846;28;20029;-52
2022/01/11 00:10:53;;;;;;;29.52;10.15;;;3.70;99.90;;;;;;5017614;28;20068;-52
2022/01/11 00:13:20;;;;;;;34.28;10.48;;;3.70;99.90;;;;;;5035237;28;20033;-53
2022/01/11 00:15:47;;;;;;;29.60;11.30;;;3.80;99.90;;;;;;5036085;28;20021;-54
2022/01/11 00:18:13;;;;;;;32.92;10.00;;;3.80;99.90;;;;;;5017418;28;20038;-52
2022/01/11 00:20:40;;;;;;;30.05;9.85;;;3.90;99.90;;;;;;5035178;28;20021;-51
2022/01/11 00:26:09;;;;;;;32.40;11.18;;;3.90;99.90;;;;;;5035096;28;20025;-51
2022/01/11 00:28:35;;;;;;;27.73;10.90;;;3.80;99.90;;;;;;5035675;28;20030;-52
2022/01/11 00:31:03;;;;;;;34.85;10.90;;;3.80;99.90;;;;;;5033783;28;20164;-51
2022/01/11 00:33:37;;;;;;;32.10;11.05;;;3.80;99.90;;;;;;5033627;28;20037;-52
2022/01/11 00:36:06;;;;;;;27.38;10.02;;;3.80;99.90;;;;;;5034641;28;20083;-53
2022/01/11 00:38:37;;;;;;;28.27;10.35;;;3.80;99.90;;;;;;5033813;28;20045;-51
2022/01/11 00:41:12;;;;;;;30.98;9.98;;;3.80;99.90;;;;;;5034410;28;20064;-52
2022/01/11 00:43:40;;;;;;;32.65;10.55;;;3.90;99.90;;;;;;5034582;28;20036;-51
2022/01/11 00:46:06;;;;;;;30.20;10.65;;;3.90;99.90;;;;;;5033579;28;20025;-51
2022/01/11 00:48:35;;;;;;;31.75;11.82;;;3.90;99.90;;;;;;5033454;28;20029;-50
2022/01/11 00:51:01;;;;;;;32.22;11.57;;;3.80;99.90;;;;;;5033611;28;20025;-55
2022/01/11 00:53:27;;;;;;;34.47;10.98;;;3.80;99.90;;;;;;5034466;28;20032;-51
2022/01/11 00:55:52;;;;;;;36.13;11.23;;;3.80;99.90;;;;;;5034544;28;20092;-53
2022/01/11 00:58:19;;;;;;;34.20;10.75;;;3.80;99.90;;;;;;5033153;28;20052;-50
2022/01/11 01:00:45;;;;;;;33.38;10.77;;;3.80;99.90;;;;;;5033452;28;20495;-50
2022/01/11 01:03:12;;;;;;;33.42;10.90;;;3.80;99.90;;;;;;5033510;28;20079;-53
2022/01/11 01:05:38;;;;;;;23.45;8.77;;;3.80;99.90;;;;;;5033112;28;20076;-51
2022/01/11 01:08:05;;;;;;;27.65;10.10;;;3.90;99.90;;;;;;5034213;28;20025;-51
2022/01/11 01:10:39;;;;;;;37.22;11.25;;;3.90;99.90;;;;;;5033024;28;20037;-53
2022/01/11 01:13:13;;;;;;;29.70;10.40;;;3.80;99.90;;;;;;5034681;28;20041;-52
2022/01/11 01:15:39;;;;;;;29.55;9.77;;;3.90;99.90;;;;;;5032958;28;20030;-52
2022/01/11 01:18:06;;;;;;;35.85;10.43;;;4.00;99.90;;;;;;5034035;28;20029;-52
2022/01/11 01:20:33;;;;;;;30.60;11.32;;;3.90;99.90;;;;;;5034532;28;20049;-52
2022/01/11 01:22:59;;;;;;;32.50;10.73;;;3.90;99.90;;;;;;5033204;28;20025;-51
2022/01/11 01:25:25;;;;;;;29.80;10.77;;;3.90;99.90;;;;;;5033125;28;20025;-51
2022/01/11 01:27:52;;;;;;;35.45;11.25;;;3.90;99.90;;;;;;5034205;28;20038;-53
2022/01/11 01:30:18;;;;;;;32.35;10.63;;;3.80;99.90;;;;;;5033517;28;20036;-51
2022/01/11 01:32:45;;;;;;;28.15;9.95;;;3.80;99.90;;;;;;5033095;28;20029;-51
2022/01/11 01:35:12;;;;;;;34.45;11.38;;;3.80;99.90;;;;;;5033161;28;20034;-51
2022/01/11 01:37:38;;;;;;;31.48;11.07;;;3.90;99.90;;;;;;5032864;28;20022;-50
2022/01/11 01:40:06;;;;;;;30.25;10.60;;;3.90;99.90;;;;;;5033712;28;20030;-51
2022/01/11 01:42:33;;;;;;;31.30;10.45;;;3.90;99.90;;;;;;5033919;28;20132;-51
2022/01/11 01:45:01;;;;;;;27.50;9.93;;;3.90;99.90;;;;;;5032435;28;20060;-52
2022/01/11 01:47:27;;;;;;;28.10;9.90;;;3.90;99.90;;;;;;5033619;28;20045;-54
2022/01/11 01:49:53;;;;;;;26.05;9.38;;;3.90;99.90;;;;;;5032527;28;20061;-50
2022/01/11 01:52:19;;;;;;;26.75;9.23;;;3.80;99.90;;;;;;5032292;28;20400;-54
2022/01/11 01:54:45;;;;;;;23.48;8.35;;;3.80;99.90;;;;;;5032260;28;20021;-51
2022/01/11 01:57:11;;;;;;;23.25;8.75;;;3.90;99.90;;;;;;5031848;28;20120;-52
2022/01/11 01:59:37;;;;;;;24.80;9.48;;;4.00;99.90;;;;;;5033316;28;20036;-51
2022/01/11 02:02:04;;;;;;;27.42;9.02;;;4.10;99.90;;;;;;5033222;28;20032;-56
2022/01/11 02:04:29;;;;;;;18.20;8.02;;;4.00;99.90;;;;;;5033011;28;20415;-52
2022/01/11 02:06:55;;;;;;;26.67;9.07;;;3.90;99.90;;;;;;5032386;28;20049;-51
2022/01/11 02:09:20;;;;;;;23.50;9.45;;;3.80;99.90;;;;;;5033630;28;20036;-53
2022/01/11 02:11:47;;;;;;;22.90;8.15;;;3.90;99.90;;;;;;5033357;28;20033;-53
2022/01/11 02:14:13;;;;;;;26.30;9.20;;;3.80;99.90;;;;;;5032384;28;20048;-52
2022/01/11 02:16:39;;;;;;;26.92;9.88;;;3.80;99.90;;;;;;5033365;28;20084;-51
2022/01/11 02:19:05;;;;;;;27.10;10.13;;;3.70;99.90;;;;;;5031984;28;20511;-51
2022/01/11 02:21:30;;;;;;;17.77;7.55;;;3.70;99.90;;;;;;5033616;28;20025;-56
2022/01/11 02:23:58;;;;;;;26.55;9.27;;;3.80;99.90;;;;;;5033420;28;20033;-52
2022/01/11 02:26:24;;;;;;;26.05;8.43;;;3.80;99.90;;;;;;5032428;28;20032;-50
2022/01/11 02:28:51;;;;;;;22.50;8.63;;;3.90;99.90;;;;;;5032561;28;20022;-52
2022/01/11 02:31:18;;;;;;;25.33;9.27;;;3.90;99.90;;;;;;5032026;28;20026;-54
2022/01/11 02:33:49;;;;;;;23.15;8.95;;;3.80;99.90;;;;;;5031723;28;20032;-55
2022/01/11 02:36:19;;;;;;;23.45;9.15;;;3.80;99.90;;;;;;5031882;28;20022;-50
2022/01/11 02:38:52;;;;;;;26.52;9.40;;;3.80;99.90;;;;;;5031947;28;20029;-55
2022/01/11 02:41:19;;;;;;;24.80;9.35;;;3.90;99.90;;;;;;5032667;28;20025;-50
2022/01/11 02:43:47;;;;;;;24.20;8.70;;;3.90;99.90;;;;;;5031863;28;20021;-51
2022/01/11 02:46:14;;;;;;;23.98;9.57;;;3.80;99.90;;;;;;5033092;28;20017;-51
2022/01/11 02:48:40;;;;;;;26.73;10.32;;;3.80;99.90;;;;;;5033048;28;20034;-52
2022/01/11 02:51:07;;;;;;;35.40;11.98;;;3.70;99.90;;;;;;5032018;28;20029;-54
2022/01/11 02:53:41;;;;;;;33.30;11.57;;;3.60;99.90;;;;;;5031681;28;20484;-52
2022/01/11 02:56:08;;;;;;;29.27;10.32;;;3.70;99.90;;;;;;5033124;28;20075;-50
2022/01/11 02:58:33;;;;;;;31.73;10.77;;;3.70;99.90;;;;;;5031674;28;20492;-50
2022/01/11 03:00:59;;;;;;;30.77;10.85;;;3.70;99.90;;;;;;5031949;28;20022;-50
2022/01/11 03:03:25;;;;;;;32.28;10.32;;;3.70;99.90;;;;;;5032420;28;20112;-53
2022/01/11 03:05:54;;;;;;;32.85;10.70;;;3.80;99.90;;;;;;5031066;28;20033;-53
2022/01/11 03:08:21;;;;;;;29.13;9.95;;;3.80;99.90;;;;;;5034713;28;20029;-50
2022/01/11 03:10:49;;;;;;;36.58;10.65;;;3.80;99.90;;;;;;5035260;28;20124;-51
2022/01/11 03:13:16;;;;;;;28.55;10.95;;;3.90;99.90;;;;;;5036479;28;20029;-50
2022/01/11 03:16:05;;;;;;;26.92;9.98;;;3.80;99.90;;;;;;5035183;28;20025;-51
2022/01/11 03:18:30;;;;;;;27.80;10.32;;;3.90;99.90;;;;;;5035981;28;20021;-50
2022/01/11 03:20:56;;;;;;;37.03;11.02;;;3.80;99.90;;;;;;5034827;28;20438;-54
2022/01/11 03:23:22;;;;;;;25.10;9.07;;;3.70;99.90;;;;;;5034866;28;20033;-52
2022/01/11 03:25:52;;;;;;;28.02;9.43;;;3.70;99.90;;;;;;5036200;28;20033;-56
2022/01/11 03:28:23;;;;;;;29.10;10.23;;;3.80;99.90;;;;;;5035230;28;20027;-52
2022/01/11 03:30:51;;;;;;;33.05;10.30;;;3.80;99.90;;;;;;5034957;28;20037;-53
2022/01/11 03:33:17;;;;;;;30.05;10.13;;;3.70;99.90;;;;;;5034408;28;20026;-51
2022/01/11 03:35:42;;;;;;;30.25;10.38;;;3.70;99.90;;;;;;5035610;28;20171;-50
2022/01/11 03:38:11;;;;;;;30.58;9.65;;;3.80;99.90;;;;;;5035978;28;20072;-50
2022/01/11 03:40:38;;;;;;;24.85;9.65;;;3.90;99.90;;;;;;5034738;28;20116;-50
2022/01/11 03:43:04;;;;;;;38.42;12.82;;;4.00;99.90;;;;;;5034629;28;20108;-52
2022/01/11 03:45:30;;;;;;;24.85;8.90;;;3.90;99.90;;;;;;5034810;28;20148;-50
2022/01/11 03:47:58;;;;;;;28.10;9.57;;;3.90;99.90;;;;;;5035811;28;20049;-52
2022/01/11 03:50:24;;;;;;;36.47;11.07;;;3.80;99.90;;;;;;5035483;28;20026;-51
2022/01/11 03:53:08;;;;;;;34.10;9.93;;;3.90;99.90;;;;;;5035629;28;20026;-50
2022/01/11 03:56:35;;;;;;;29.67;10.65;;;3.90;99.90;;;;;;5035907;28;20044;-51
2022/01/11 03:58:29;;;;;;;28.25;9.70;;;3.80;99.90;;;;;;5026532;28;20033;-50
2022/01/11 04:00:57;;;;;;;27.60;11.25;;;3.80;99.90;;;;;;5034337;28;20465;-50
2022/01/11 04:03:22;;;;;;;27.25;9.75;;;3.90;99.90;;;;;;5034302;28;20112;-50
2022/01/11 04:05:48;;;;;;;24.40;9.18;;;3.80;99.90;;;;;;5034207;28;20124;-51
2022/01/11 04:08:14;;;;;;;26.70;8.77;;;3.90;99.90;;;;;;5034194;28;20029;-50
2022/01/11 04:10:39;;;;;;;22.40;8.57;;;3.90;99.90;;;;;;5035453;28;20105;-52
2022/01/11 04:13:05;;;;;;;24.17;9.48;;;3.80;99.90;;;;;;5034125;28;20064;-54
2022/01/11 04:15:31;;;;;;;22.77;8.93;;;3.80;99.90;;;;;;5034222;28;20017;-50
2022/01/11 04:17:56;;;;;;;23.50;9.05;;;3.80;99.90;;;;;;5034490;28;20492;-50
2022/01/11 04:20:22;;;;;;;24.48;9.10;;;3.90;99.90;;;;;;5033535;28;20021;-53
2022/01/11 04:22:51;;;;;;;28.52;9.57;;;4.00;99.90;;;;;;5034805;28;20027;-53
2022/01/11 04:25:18;;;;;;;28.73;10.05;;;3.90;99.90;;;;;;5033679;28;20037;-50
2022/01/11 04:27:44;;;;;;;25.60;9.75;;;3.90;99.90;;;;;;5017317;28;20116;-54
2022/01/11 04:30:10;;;;;;;24.55;8.80;;;3.90;99.90;;;;;;5017333;28;20128;-54
2022/01/11 04:32:36;;;;;;;27.65;9.50;;;3.90;99.90;;;;;;5017230;28;20060;-53
2022/01/11 04:35:03;;;;;;;27.25;9.75;;;3.80;99.90;;;;;;5017051;28;20025;-54
2022/01/11 04:37:29;;;;;;;24.70;8.02;;;3.80;99.90;;;;;;5034913;28;20022;-50
2022/01/11 04:39:54;;;;;;;27.15;9.50;;;3.80;99.90;;;;;;5034964;28;20017;-52
2022/01/11 04:42:20;;;;;;;25.80;8.38;;;3.90;99.90;;;;;;5017687;28;20032;-55
2022/01/11 04:44:46;;;;;;;24.00;9.38;;;3.70;99.90;;;;;;5034873;28;20017;-53
2022/01/11 04:47:11;;;;;;;24.33;8.48;;;3.70;99.90;;;;;;5017082;28;20018;-52
2022/01/11 04:49:37;;;;;;;27.80;9.25;;;3.80;99.90;;;;;;5017036;28;20029;-52
2022/01/11 04:52:03;;;;;;;24.58;8.20;;;3.80;99.90;;;;;;5017075;28;20167;-54
2022/01/11 04:54:29;;;;;;;25.95;10.18;;;3.70;99.90;;;;;;5035067;28;20025;-54
2022/01/11 04:56:54;;;;;;;29.48;10.38;;;3.80;99.90;;;;;;5017252;28;20030;-50
2022/01/11 04:59:20;;;;;;;22.60;8.93;;;3.80;99.90;;;;;;5016797;28;20021;-52
2022/01/11 05:01:46;;;;;;;21.92;8.07;;;3.80;99.90;;;;;;5034655;28;20021;-54
2022/01/11 05:04:13;;;;;;;20.95;8.63;;;3.90;99.90;;;;;;5016648;28;20026;-53
2022/01/11 05:06:39;;;;;;;18.80;8.70;;;3.80;99.90;;;;;;5016898;28;20026;-54
2022/01/11 05:09:04;;;;;;;24.98;9.45;;;3.80;99.90;;;;;;5016834;28;20079;-54
2022/01/11 05:11:30;;;;;;;26.33;8.90;;;3.80;99.90;;;;;;5016834;28;20431;-53
2022/01/11 05:13:56;;;;;;;23.45;8.85;;;3.80;99.90;;;;;;5017254;28;20021;-51
2022/01/11 05:16:21;;;;;;;24.30;8.80;;;3.80;99.90;;;;;;5016862;28;20056;-50
2022/01/11 05:18:47;;;;;;;21.42;7.78;;;3.80;99.90;;;;;;5017227;28;20022;-51
2022/01/11 05:21:13;;;;;;;24.88;9.43;;;3.80;99.90;;;;;;5016261;28;20029;-54
2022/01/11 05:23:38;;;;;;;22.23;8.45;;;3.80;99.90;;;;;;5016931;28;20037;-54
2022/01/11 05:26:04;;;;;;;22.95;8.63;;;3.80;99.90;;;;;;5017434;28;20017;-50
2022/01/11 05:28:30;;;;;;;22.77;8.27;;;3.80;99.90;;;;;;5033813;28;20029;-50
2022/01/11 05:30:56;;;;;;;23.15;8.95;;;3.80;99.90;;;;;;5033184;28;20034;-50
2022/01/11 05:33:21;;;;;;;19.88;8.35;;;3.60;99.90;;;;;;5033574;28;20025;-53
2022/01/11 05:35:47;;;;;;;27.08;8.98;;;3.70;99.90;;;;;;5016169;28;20029;-51
2022/01/11 05:38:14;;;;;;;21.58;8.30;;;3.70;99.90;;;;;;5016021;28;20112;-50
2022/01/11 05:40:40;;;;;;;21.55;8.25;;;3.60;99.90;;;;;;5016161;28;20033;-52
2022/01/11 05:43:06;;;;;;;22.88;8.98;;;3.60;99.90;;;;;;5016827;28;20108;-50
2022/01/11 05:45:32;;;;;;;24.63;8.00;;;3.70;99.90;;;;;;5033959;28;20029;-54
2022/01/11 05:48:00;;;;;;;24.45;9.00;;;3.60;99.90;;;;;;5033612;28;20091;-51
2022/01/11 05:50:26;;;;;;;27.20;9.60;;;3.70;99.90;;;;;;5016008;28;20032;-55
2022/01/11 05:52:51;;;;;;;25.23;8.52;;;3.60;99.90;;;;;;5033705;28;20025;-54
2022/01/11 05:55:18;;;;;;;23.17;9.15;;;3.50;99.90;;;;;;5015869;28;20053;-51
2022/01/11 05:57:43;;;;;;;26.73;9.70;;;3.60;99.90;;;;;;5016643;28;20018;-50
2022/01/11 06:00:16;;;;;;;24.45;9.15;;;3.70;99.90;;;;;;5015827;28;20113;-52
2022/01/11 06:02:46;;;;;;;22.55;8.85;;;3.50;99.90;;;;;;5016450;28;20037;-52
2022/01/11 06:05:12;;;;;;;23.85;9.73;;;3.50;99.90;;;;;;5015708;28;20033;-52
2022/01/11 06:07:39;;;;;;;23.75;8.63;;;3.60;99.90;;;;;;5015972;28;20546;-53
2022/01/11 06:10:06;;;;;;;28.05;9.38;;;3.50;99.90;;;;;;5015732;28;20064;-51
2022/01/11 06:12:31;;;;;;;27.77;9.60;;;3.60;99.90;;;;;;5015540;28;20030;-50
2022/01/11 06:14:57;;;;;;;25.13;9.40;;;3.60;99.90;;;;;;5033336;28;20032;-50
2022/01/11 06:17:22;;;;;;;22.48;8.88;;;3.60;99.90;;;;;;5015510;28;20064;-54
2022/01/11 06:19:48;;;;;;;22.52;8.35;;;3.50;99.90;;;;;;5015626;28;20022;-52
2022/01/11 06:22:13;;;;;;;24.70;8.68;;;3.70;99.90;;;;;;5033089;28;20017;-51
2022/01/11 06:24:39;;;;;;;24.95;9.35;;;3.60;99.90;;;;;;5033396;28;20056;-50
2022/01/11 06:27:05;;;;;;;18.65;8.00;;;3.70;99.90;;;;;;5016104;28;20025;-53
2022/01/11 06:29:30;;;;;;;20.75;8.05;;;3.70;99.90;;;;;;5033077;28;20033;-50
2022/01/11 06:31:56;;;;;;;25.80;9.98;;;3.70;99.90;;;;;;5015758;28;20022;-51
2022/01/11 06:34:22;;;;;;;28.08;9.55;;;3.70;99.90;;;;;;5015424;28;20040;-51
2022/01/11 06:36:47;;;;;;;25.45;8.90;;;3.60;99.90;;;;;;5015561;28;20018;-53
2022/01/11 06:39:13;;;;;;;21.20;8.27;;;3.60;99.90;;;;;;5033081;28;20081;-54
2022/01/11 06:41:39;;;;;;;24.30;8.27;;;3.70;99.90;;;;;;5034198;28;20099;-52
2022/01/11 06:44:06;;;;;;;22.00;8.95;;;3.70;99.90;;;;;;5037060;28;20025;-51
2022/01/11 06:46:32;;;;;;;21.60;8.77;;;3.70;99.90;;;;;;5019290;28;20025;-53
2022/01/11 06:48:59;;;;;;;23.55;9.00;;;3.70;99.90;;;;;;5036880;28;20068;-51
2022/01/11 06:51:25;;;;;;;22.30;8.95;;;3.60;99.90;;;;;;5036855;28;20117;-52
2022/01/11 06:53:51;;;;;;;22.90;7.85;;;3.60;99.90;;;;;;5019157;28;20036;-50
2022/01/11 06:56:17;;;;;;;21.27;9.20;;;3.70;99.90;;;;;;5019083;28;20022;-54
2022/01/11 06:58:44;;;;;;;22.35;8.63;;;3.70;99.90;;;;;;5018923;28;20021;-52
2022/01/11 07:01:10;;;;;;;24.70;9.27;;;3.70;99.90;;;;;;5018944;28;20053;-53
2022/01/11 07:03:36;;;;;;;24.83;8.63;;;3.70;99.90;;;;;;5019299;28;20033;-53
2022/01/11 07:06:02;;;;;;;21.85;8.80;;;3.70;99.90;;;;;;5018870;28;20068;-51
2022/01/11 07:08:28;;;;;;;21.02;8.35;;;3.80;99.90;;;;;;5019070;28;20118;-54
2022/01/11 07:10:54;;;;;;;19.52;8.80;;;3.80;99.90;;;;;;5036528;28;20053;-51
2022/01/11 07:13:20;;;;;;;28.23;8.77;;;3.80;99.90;;;;;;5018716;28;20025;-51
2022/01/11 07:15:45;;;;;;;19.63;9.02;;;3.80;99.90;;;;;;5036411;28;20104;-50
2022/01/11 07:18:12;;;;;;;22.45;9.13;;;3.80;99.90;;;;;;5018980;28;20044;-51
2022/01/11 07:20:42;;;;;;;25.83;9.50;;;3.80;99.90;;;;;;5018735;28;20052;-55
2022/01/11 07:23:08;;;;;;;22.90;9.23;;;3.80;99.90;;;;;;5019479;28;20026;-54
2022/01/11 07:25:35;;;;;;;24.48;8.55;;;3.80;99.90;;;;;;5018518;28;20116;-51
2022/01/11 07:28:02;;;;;;;20.95;9.00;;;3.80;99.90;;;;;;5036474;28;20080;-52
2022/01/11 07:30:28;;;;;;;21.23;8.30;;;3.80;99.90;;;;;;5018314;28;20036;-51
2022/01/11 07:32:53;;;;;;;24.27;8.57;;;3.70;99.90;;;;;;5018854;28;20025;-56
2022/01/11 07:35:19;;;;;;;25.05;9.13;;;3.80;99.90;;;;;;5035962;28;20029;-52
2022/01/11 07:37:45;;;;;;;20.65;8.93;;;3.70;99.90;;;;;;5018362;28;20120;-55
2022/01/11 07:40:12;;;;;;;21.77;8.70;;;3.80;99.90;;;;;;5035966;28;20093;-52
2022/01/11 07:42:37;;;;;;;23.38;8.68;;;3.70;99.90;;;;;;5036269;28;20526;-50
2022/01/11 07:45:04;;;;;;;21.55;8.50;;;3.80;99.90;;;;;;5019239;28;20026;-50
2022/01/11 07:47:30;;;;;;;22.90;8.27;;;3.80;99.90;;;;;;5035756;28;20021;-55
2022/01/11 07:49:56;;;;;;;16.15;8.20;;;3.80;99.90;;;;;;5018104;28;20018;-52
2022/01/11 07:52:21;;;;;;;26.13;9.07;;;3.80;99.90;;;;;;5017898;28;20021;-53
2022/01/11 07:54:47;;;;;;;19.92;8.77;;;3.70;99.90;;;;;;5034934;28;20164;-50
2022/01/11 07:57:13;;;;;;;25.88;9.70;;;3.80;99.90;;;;;;5035715;28;20046;-51
2022/01/11 07:59:38;;;;;;;21.98;9.00;;;3.90;99.90;;;;;;5018141;28;20511;-50
2022/01/11 08:02:04;;;;;;;20.70;9.27;;;3.90;99.90;;;;;;5035631;28;20029;-50
2022/01/11 08:04:33;;;;;;;20.20;8.80;;;3.90;99.90;;;;;;5035548;28;20025;-50
2022/01/11 08:06:59;;;;;;;19.30;7.90;;;3.80;99.90;;;;;;5035722;28;20021;-50
2022/01/11 08:09:25;;;;;;;19.10;8.15;;;3.70;99.90;;;;;;5035434;28;20049;-50
2022/01/11 08:11:51;;;;;;;22.63;8.60;;;3.80;99.90;;;;;;5018153;28;20087;-51
2022/01/11 08:14:18;;;;;;;22.45;9.10;;;3.90;99.90;;;;;;5035318;28;20037;-50
2022/01/11 08:16:43;;;;;;;26.70;8.50;;;4.00;99.90;;;;;;5035218;28;20044;-53
2022/01/11 08:19:09;;;;;;;19.50;9.25;;;4.10;99.90;;;;;;5017488;28;20029;-51
2022/01/11 08:21:35;;;;;;;24.63;9.23;;;3.90;99.90;;;;;;5035511;28;20104;-50
2022/01/11 08:24:00;;;;;;;24.88;9.75;;;4.00;99.90;;;;;;5017419;28;20028;-51
2022/01/11 08:26:30;;;;;;;26.80;8.02;;;4.00;99.90;;;;;;5022652;28;20017;-52
2022/01/11 08:28:56;;;;;;;24.13;8.95;;;3.90;99.90;;;;;;5037193;28;20021;-51
2022/01/11 08:31:21;;;;;;;21.60;8.70;;;4.10;99.90;;;;;;5054896;28;20066;-50
2022/01/11 08:33:47;;;;;;;24.15;8.98;;;4.10;99.90;;;;;;5054796;28;20033;-52
2022/01/11 08:36:14;;;;;;;21.02;9.02;;;4.10;99.90;;;;;;5055258;28;20092;-52
2022/01/11 08:38:40;;;;;;;21.30;8.60;;;4.20;99.90;;;;;;5036800;28;20025;-52
2022/01/11 08:41:05;;;;;;;18.48;8.00;;;4.40;99.90;;;;;;5036941;28;20028;-50
2022/01/11 08:43:31;;;;;;;19.35;9.77;;;4.50;99.90;;;;;;5037122;28;20163;-50
2022/01/11 08:45:57;;;;;;;19.83;7.88;;;4.60;99.90;;;;;;5037165;28;20028;-55
2022/01/11 08:48:23;;;;;;;21.33;8.63;;;4.60;99.90;;;;;;5054535;28;20021;-50
2022/01/11 08:51:19;;;;;;;23.50;8.98;;;4.40;99.90;;;;;;5036696;28;20036;-55
2022/01/11 08:53:45;;;;;;;21.90;8.45;;;4.40;99.90;;;;;;5036643;28;20076;-51
2022/01/11 08:56:15;;;;;;;19.35;7.95;;;4.40;99.90;;;;;;5036718;28;20416;-51
2022/01/11 08:58:41;;;;;;;17.52;7.70;;;4.30;99.90;;;;;;5054759;28;20014;-50
2022/01/11 09:01:06;;;;;;;19.23;7.25;;;4.60;99.90;;;;;;5050198;28;20019;-52
2022/01/11 09:03:48;;;;;;;18.35;8.70;;;4.80;99.90;;;;;;5034261;28;20113;-50
2022/01/11 09:06:14;;;;;;;16.88;7.85;;;5.00;99.90;;;;;;5033207;28;20087;-53
2022/01/11 09:08:41;;;;;;;20.65;8.07;;;5.20;99.90;;;;;;5016831;28;20037;-52
2022/01/11 09:11:07;;;;;;;19.38;8.05;;;5.20;99.90;;;;;;5034079;28;20032;-51
2022/01/11 09:13:48;;;;;;;16.73;7.32;;;5.30;99.90;;;;;;5034117;28;20037;-50
2022/01/11 09:16:15;;;;;;;16.98;7.57;;;5.50;99.90;;;;;;5016438;28;20017;-50
2022/01/11 09:18:42;;;;;;;19.38;8.80;;;5.60;99.90;;;;;;5033779;28;20018;-50
2022/01/11 09:21:08;;;;;;;17.73;8.30;;;5.50;99.90;;;;;;5016605;28;20076;-51
2022/01/11 09:23:35;;;;;;;23.90;8.82;;;5.40;99.90;;;;;;5016581;28;20025;-51
2022/01/11 09:26:01;;;;;;;23.17;9.68;;;5.50;99.90;;;;;;5016144;28;20025;-53
2022/01/11 09:28:26;;;;;;;18.13;7.85;;;5.50;99.90;;;;;;5033787;28;20029;-52
2022/01/11 09:30:52;;;;;;;19.23;8.52;;;5.40;99.90;;;;;;5033769;28;20108;-55
2022/01/11 09:33:18;;;;;;;14.32;7.55;;;5.50;99.90;;;;;;5015878;28;20033;-55
2022/01/11 09:35:44;;;;;;;26.15;8.23;;;5.40;99.90;;;;;;5033627;28;20029;-54
2022/01/11 09:38:09;;;;;;;18.40;7.57;;;5.40;99.90;;;;;;5015861;28;20025;-51
2022/01/11 09:40:35;;;;;;;17.92;8.02;;;5.30;99.90;;;;;;5033679;28;20036;-53
2022/01/11 09:43:01;;;;;;;19.02;7.38;;;5.50;99.90;;;;;;5015950;28;20029;-50
2022/01/11 09:45:27;;;;;;;21.23;8.18;;;5.60;99.90;;;;;;5033526;28;20033;-52
2022/01/11 09:47:52;;;;;;;18.80;8.32;;;5.70;99.90;;;;;;5016093;28;20033;-51
2022/01/11 09:50:37;;;;;;;23.38;8.32;;;5.60;99.90;;;;;;5015829;28;20025;-53
2022/01/11 09:53:04;;;;;;;21.20;8.10;;;5.60;99.90;;;;;;5033393;28;20392;-50
2022/01/11 09:55:29;;;;;;;17.25;8.95;;;5.70;99.90;;;;;;5033388;28;20029;-50
2022/01/11 09:58:17;;;;;;;14.85;7.65;;;5.80;99.90;;;;;;5033372;28;20048;-55
2022/01/11 10:00:42;;;;;;;21.33;8.07;;;5.90;99.90;;;;;;5015696;28;20018;-54
2022/01/11 10:03:09;;;;;;;18.45;8.02;;;5.90;99.90;;;;;;5033372;28;20109;-51
2022/01/11 10:05:42;;;;;;;18.73;7.22;;;6.00;99.90;;;;;;5015953;28;20033;-55
2022/01/11 10:08:21;;;;;;;18.10;7.80;;;6.00;99.90;;;;;;5015501;28;20022;-50
2022/01/11 10:10:48;;;;;;;18.65;8.68;;;6.00;99.90;;;;;;5033225;28;20476;-56
2022/01/11 10:13:35;;;;;;;17.50;7.38;;;5.80;99.90;;;;;;5015691;28;20053;-53
2022/01/11 10:16:25;;;;;;;15.02;7.03;;;5.70;99.90;;;;;;5015229;28;20117;-55
2022/01/11 10:18:52;;;;;;;16.95;6.90;;;5.70;99.90;;;;;;5015899;28;20022;-53
2022/01/11 10:21:38;;;;;;;13.57;6.47;;;5.80;99.90;;;;;;5015908;28;20026;-52
2022/01/11 10:24:38;;;;;;;18.05;7.10;;;6.00;99.90;;;;;;5015717;28;20047;-50
2022/01/11 10:27:20;;;;;;;17.27;7.40;;;5.90;99.90;;;;;;5015387;28;20036;-52
2022/01/11 10:30:06;;;;;;;14.27;6.78;;;5.80;99.90;;;;;;5015378;28;20103;-53
2022/01/11 10:32:37;;;;;;;13.85;7.00;;;5.60;99.90;;;;;;5032952;28;20071;-52
2022/01/11 10:35:10;;;;;;;15.07;6.40;;;5.60;99.90;;;;;;5015593;28;20040;-52
2022/01/11 10:37:42;;;;;;;17.38;7.03;;;5.80;99.90;;;;;;5015501;28;20392;-51
2022/01/11 10:40:19;;;;;;;;;;;6.00;99.90;;;;;;5015704;28;20017;-53
2022/01/11 10:43:15;;;;;;;18.95;7.20;;;6.10;99.90;;;;;;5031742;28;19905;-52
2022/01/11 10:45:55;;;;;;;14.27;6.63;;;6.40;99.90;;;;;;5014667;28;20033;-52
2022/01/11 10:48:44;;;;;;;21.92;7.40;;;6.30;99.90;;;;;;5015042;28;20022;-49
2022/01/11 10:51:30;;;;;;;12.55;7.25;;;6.40;99.90;;;;;;5015241;28;20061;-49
2022/01/11 10:54:18;;;;;;;18.63;7.03;;;6.50;99.90;;;;;;5014689;28;20036;-49
2022/01/11 10:56:51;;;;;;;16.63;6.88;;;6.40;99.90;;;;;;5020684;28;20022;-50
2022/01/11 10:59:22;;;;;;;21.15;7.55;;;6.40;99.90;;;;;;5012046;28;20022;-52
2022/01/11 11:01:55;;;;;;;13.93;6.65;;;6.40;99.90;;;;;;5013326;28;20026;-51
2022/01/11 11:04:38;;;;;;;15.13;7.50;;;6.40;99.90;;;;;;5012988;28;20030;-49
2022/01/11 11:07:29;;;;;;;16.73;6.68;;;6.20;99.90;;;;;;4995494;28;20022;-50
2022/01/11 11:10:02;;;;;;;18.33;7.05;;;6.10;99.90;;;;;;4995337;28;20033;-51
2022/01/11 11:12:33;;;;;;;17.98;6.43;;;6.40;99.90;;;;;;4995954;28;20056;-51
2022/01/11 11:15:03;;;;;;;15.73;7.00;;;6.60;99.90;;;;;;5011852;28;20033;-52
2022/01/11 11:17:51;;;;;;;;;;;;;;;;;;;;;
2022/01/11 11:20:38;;;;;;;16.10;7.38;;;7.10;99.90;;;;;;5013070;28;20032;-49
2022/01/11 11:26:06;;;;;;;13.10;6.75;;;7.20;99.90;;;;;;5012143;28;20034;-50
2022/01/11 11:28:32;;;;;;;12.10;6.22;;;7.20;99.90;;;;;;5012515;28;20113;-51
2022/01/11 11:30:59;;;;;;;14.75;6.10;;;7.20;99.90;;;;;;5015442;28;20029;-52
2022/01/11 11:33:25;;;;;;;16.35;7.05;;;7.30;99.90;;;;;;5015009;28;20029;-52
2022/01/11 11:35:51;;;;;;;15.00;6.55;;;7.30;99.90;;;;;;5016417;28;20030;-53
2022/01/11 11:38:21;;;;;;;21.85;7.22;;;7.10;99.90;;;;;;5014937;28;20080;-54
2022/01/11 11:40:54;;;;;;;18.15;6.40;;;7.00;99.90;;;;;;5014835;28;20018;-54
2022/01/11 11:43:21;;;;;;;13.02;6.45;;;7.10;99.90;;;;;;5014933;28;20125;-54
2022/01/11 11:45:47;;;;;;;17.33;6.85;;;7.20;99.90;;;;;;5014803;28;20080;-51
2022/01/11 11:48:16;;;;;;;15.20;6.80;;;7.30;99.90;;;;;;5014952;28;20029;-54
2022/01/11 11:51:03;;;;;;;15.38;7.28;;;7.40;99.90;;;;;;5015905;28;20080;-53
2022/01/11 11:53:38;;;;;;;15.25;7.30;;;7.40;99.90;;;;;;4998114;28;20029;-53
2022/01/11 11:56:17;;;;;;;20.42;6.45;;;7.50;99.90;;;;;;5014378;28;20022;-54
2022/01/11 11:58:50;;;;;;;18.77;6.95;;;7.40;99.90;;;;;;4998181;28;20048;-49
2022/01/11 12:01:41;;;;;;;14.73;7.75;;;7.30;99.90;;;;;;4998259;28;20106;-49
2022/01/11 12:07:32;;;;;;;19.17;6.75;;;7.60;99.90;;;;;;5016121;28;20034;-49
2022/01/11 12:09:59;;;;;;;16.50;6.63;;;7.90;99.90;;;;;;4997987;28;20492;-54
2022/01/11 12:12:55;;;;;;;15.45;7.43;;;7.90;99.90;;;;;;5015539;28;20018;-53
2022/01/11 12:15:45;;;;;;;17.77;6.45;;;7.90;99.90;;;;;;5015538;28;20030;-54
2022/01/11 12:18:12;;;;;;;12.52;6.63;;;8.00;99.90;;;;;;4998401;28;20088;-52
2022/01/11 12:20:58;;;;;;;18.25;8.00;;;8.00;99.90;;;;;;4997798;28;20396;-50
2022/01/11 12:23:35;;;;;;;16.85;7.13;;;7.80;99.90;;;;;;5015428;28;20048;-54
2022/01/11 12:26:20;;;;;;;16.63;7.00;;;7.80;99.90;;;;;;4997992;28;20117;-52
2022/01/11 12:29:24;;;;;;;19.58;7.88;;;7.40;99.90;;;;;;5013952;28;20385;-57
2022/01/11 12:32:08;;;;;;;15.32;7.10;;;7.00;99.90;;;;;;4997693;28;20120;-52
2022/01/11 12:34:46;;;;;;;17.20;7.05;;;7.00;99.90;;;;;;4997409;28;20038;-50
2022/01/11 12:37:33;;;;;;;22.52;7.53;;;7.20;99.90;;;;;;4997787;28;20021;-53
2022/01/11 12:40:25;;;;;;;17.42;7.65;;;7.20;99.90;;;;;;4997510;28;20032;-53
2022/01/11 12:42:54;;;;;;;17.05;7.05;;;7.30;99.90;;;;;;5013733;28;20029;-53
2022/01/11 12:46:00;;;;;;;19.10;7.53;;;7.30;99.90;;;;;;5014888;28;20034;-55
2022/01/11 12:48:44;;;;;;;18.30;7.32;;;7.30;99.90;;;;;;4997568;28;20018;-51
2022/01/11 12:51:30;;;;;;;16.08;6.95;;;7.10;99.90;;;;;;5014914;28;20164;-52
2022/01/11 12:54:22;;;;;;;15.43;7.10;;;7.00;99.90;;;;;;5014902;28;20097;-52
2022/01/11 12:56:59;;;;;;;15.27;6.72;;;7.00;99.90;;;;;;5015808;28;20022;-56
2022/01/11 12:59:29;;;;;;;19.13;7.72;;;6.80;99.90;;;;;;5021361;28;20022;-56
2022/01/11 13:02:27;;;;;;;18.70;6.70;;;6.90;99.90;;;;;;5019449;28;20026;-54
2022/01/11 13:04:54;;;;;;;14.05;7.88;;;6.80;99.90;;;;;;5005817;28;20030;-54
2022/01/11 13:07:27;;;;;;;18.55;7.55;;;6.80;99.90;;;;;;5014455;28;20032;-56
2022/01/11 13:10:10;;;;;;;17.17;6.85;;;6.80;99.90;;;;;;5014207;28;20026;-55